sensor_id;sensor_type;location;lat;lon;timestamp;pressure;altitude;pressure_sealevel;temperature;humidity
74615;BME280;63121;51.458;-0.110;2023-09-19T00:01:28;100648.47;;;17.00;59.89
74615;BME280;63121;51.458;-0.110;2023-09-19T00:03:55;100661.69;;;17.18;59.47
74615;BME280;63121;51.458;-0.110;2023-09-19T00:06:22;100665.78;;;17.45;58.89
74615;BME280;63121;51.458;-0.110;2023-09-19T00:08:52;100667.25;;;17.09;59.81
74615;BME280;63121;51.458;-0.110;2023-09-19T00:11:17;100655.13;;;17.30;58.30
74615;BME280;63121;51.458;-0.110;2023-09-19T00:13:42;100654.88;;;17.36;58.85
74615;BME280;63121;51.458;-0.110;2023-09-19T00:16:09;100671.56;;;17.32;59.43
74615;BME280;63121;51.458;-0.110;2023-09-19T00:18:38;100664.00;;;17.25;58.62
74615;BME280;63121;51.458;-0.110;2023-09-19T00:21:03;100659.94;;;17.18;59.45
74615;BME280;63121;51.458;-0.110;2023-09-19T00:23:32;100658.91;;;17.22;59.45
74615;BME280;63121;51.458;-0.110;2023-09-19T00:26:01;100669.28;;;17.02;60.05
74615;BME280;63121;51.458;-0.110;2023-09-19T00:28:27;100659.63;;;17.48;58.10
74615;BME280;63121;51.458;-0.110;2023-09-19T00:30:52;100653.75;;;17.21;58.91
74615;BME280;63121;51.458;-0.110;2023-09-19T00:33:19;100654.31;;;17.50;58.21
74615;BME280;63121;51.458;-0.110;2023-09-19T00:35:52;100644.88;;;17.03;59.63
74615;BME280;63121;51.458;-0.110;2023-09-19T00:38:19;100635.53;;;17.19;58.67
74615;BME280;63121;51.458;-0.110;2023-09-19T00:40:47;100646.38;;;17.31;58.99
74615;BME280;63121;51.458;-0.110;2023-09-19T00:43:13;100642.28;;;17.25;58.85
74615;BME280;63121;51.458;-0.110;2023-09-19T00:45:42;100646.94;;;17.17;58.82
74615;BME280;63121;51.458;-0.110;2023-09-19T00:48:09;100658.72;;;17.70;57.84
74615;BME280;63121;51.458;-0.110;2023-09-19T00:50:35;100662.50;;;17.62;57.98
74615;BME280;63121;51.458;-0.110;2023-09-19T00:53:02;100664.59;;;17.10;58.98
74615;BME280;63121;51.458;-0.110;2023-09-19T00:55:36;100665.63;;;17.50;58.16
74615;BME280;63121;51.458;-0.110;2023-09-19T00:58:02;100673.81;;;17.41;58.41
74615;BME280;63121;51.458;-0.110;2023-09-19T01:00:28;100673.66;;;17.66;57.61
74615;BME280;63121;51.458;-0.110;2023-09-19T01:02:54;100663.38;;;17.41;58.33
74615;BME280;63121;51.458;-0.110;2023-09-19T01:05:19;100664.44;;;17.57;58.08
74615;BME280;63121;51.458;-0.110;2023-09-19T01:07:45;100672.84;;;17.21;58.15
74615;BME280;63121;51.458;-0.110;2023-09-19T01:10:14;100667.25;;;17.31;57.99
74615;BME280;63121;51.458;-0.110;2023-09-19T01:30:17;100675.09;;;17.31;58.37
74615;BME280;63121;51.458;-0.110;2023-09-19T01:32:42;100681.38;;;17.47;57.54
74615;BME280;63121;51.458;-0.110;2023-09-19T01:35:08;100669.31;;;17.44;57.89
74615;BME280;63121;51.458;-0.110;2023-09-19T01:37:37;100684.72;;;17.28;57.60
74615;BME280;63121;51.458;-0.110;2023-09-19T01:40:06;100677.09;;;17.24;58.40
74615;BME280;63121;51.458;-0.110;2023-09-19T01:43:05;100685.81;;;17.45;57.87
74615;BME280;63121;51.458;-0.110;2023-09-19T01:48:25;100673.13;;;17.58;57.28
74615;BME280;63121;51.458;-0.110;2023-09-19T01:56:14;100677.59;;;17.34;57.06
74615;BME280;63121;51.458;-0.110;2023-09-19T01:58:48;100668.00;;;17.56;57.05
74615;BME280;63121;51.458;-0.110;2023-09-19T02:01:19;100674.88;;;17.57;57.00
74615;BME280;63121;51.458;-0.110;2023-09-19T02:03:48;100671.84;;;17.68;56.79
74615;BME280;63121;51.458;-0.110;2023-09-19T02:06:15;100673.81;;;17.41;57.47
74615;BME280;63121;51.458;-0.110;2023-09-19T02:08:41;100668.69;;;17.60;57.01
74615;BME280;63121;51.458;-0.110;2023-09-19T02:11:06;100666.75;;;17.65;56.60
74615;BME280;63121;51.458;-0.110;2023-09-19T02:13:32;100672.44;;;17.75;56.77
74615;BME280;63121;51.458;-0.110;2023-09-19T02:15:57;100664.91;;;17.24;57.17
74615;BME280;63121;51.458;-0.110;2023-09-19T02:18:23;100668.69;;;17.60;56.83
74615;BME280;63121;51.458;-0.110;2023-09-19T02:20:48;100676.50;;;17.39;57.17
74615;BME280;63121;51.458;-0.110;2023-09-19T02:23:14;100683.03;;;17.50;56.92
74615;BME280;63121;51.458;-0.110;2023-09-19T02:25:40;100679.50;;;17.51;56.93
74615;BME280;63121;51.458;-0.110;2023-09-19T02:28:06;100683.59;;;17.36;57.28
74615;BME280;63121;51.458;-0.110;2023-09-19T02:30:32;100681.88;;;17.57;56.19
74615;BME280;63121;51.458;-0.110;2023-09-19T02:32:58;100689.94;;;17.28;57.15
74615;BME280;63121;51.458;-0.110;2023-09-19T02:35:23;100684.50;;;17.35;57.07
74615;BME280;63121;51.458;-0.110;2023-09-19T02:37:50;100689.47;;;17.63;56.65
74615;BME280;63121;51.458;-0.110;2023-09-19T02:40:15;100692.50;;;17.30;57.12
74615;BME280;63121;51.458;-0.110;2023-09-19T02:42:47;100688.19;;;17.51;56.43
74615;BME280;63121;51.458;-0.110;2023-09-19T02:45:17;100683.19;;;17.24;57.08
74615;BME280;63121;51.458;-0.110;2023-09-19T02:47:44;100682.91;;;17.53;56.92
74615;BME280;63121;51.458;-0.110;2023-09-19T02:50:09;100680.66;;;17.65;56.70
74615;BME280;63121;51.458;-0.110;2023-09-19T02:52:37;100672.31;;;17.35;57.49
74615;BME280;63121;51.458;-0.110;2023-09-19T02:55:03;100654.47;;;17.24;57.67
74615;BME280;63121;51.458;-0.110;2023-09-19T02:57:30;100655.72;;;17.36;57.47
74615;BME280;63121;51.458;-0.110;2023-09-19T02:59:58;100661.56;;;17.21;57.75
74615;BME280;63121;51.458;-0.110;2023-09-19T03:02:24;100659.69;;;17.24;57.80
74615;BME280;63121;51.458;-0.110;2023-09-19T03:04:50;100659.13;;;17.38;57.02
74615;BME280;63121;51.458;-0.110;2023-09-19T03:07:16;100660.72;;;17.42;56.65
74615;BME280;63121;51.458;-0.110;2023-09-19T03:09:42;100663.72;;;17.54;56.53
74615;BME280;63121;51.458;-0.110;2023-09-19T03:12:08;100653.00;;;17.39;57.58
74615;BME280;63121;51.458;-0.110;2023-09-19T03:14:33;100659.81;;;17.64;56.71
74615;BME280;63121;51.458;-0.110;2023-09-19T03:17:01;100656.91;;;17.72;56.19
74615;BME280;63121;51.458;-0.110;2023-09-19T03:19:26;100667.19;;;17.75;56.35
74615;BME280;63121;51.458;-0.110;2023-09-19T03:21:52;100654.41;;;17.48;57.16
74615;BME280;63121;51.458;-0.110;2023-09-19T03:24:18;100647.47;;;17.47;57.10
74615;BME280;63121;51.458;-0.110;2023-09-19T03:26:44;100654.06;;;17.35;57.20
74615;BME280;63121;51.458;-0.110;2023-09-19T03:29:10;100650.41;;;17.60;57.08
74615;BME280;63121;51.458;-0.110;2023-09-19T03:31:36;100645.53;;;17.52;56.70
74615;BME280;63121;51.458;-0.110;2023-09-19T03:34:04;100656.91;;;17.50;57.16
74615;BME280;63121;51.458;-0.110;2023-09-19T03:36:30;100662.66;;;17.37;56.98
74615;BME280;63121;51.458;-0.110;2023-09-19T03:38:55;100653.63;;;17.66;56.51
74615;BME280;63121;51.458;-0.110;2023-09-19T03:41:21;100656.47;;;17.82;56.48
74615;BME280;63121;51.458;-0.110;2023-09-19T03:43:46;100660.03;;;17.59;56.79
74615;BME280;63121;51.458;-0.110;2023-09-19T03:46:12;100647.72;;;17.41;57.33
74615;BME280;63121;51.458;-0.110;2023-09-19T03:48:40;100646.47;;;17.72;56.36
74615;BME280;63121;51.458;-0.110;2023-09-19T03:51:06;100645.16;;;17.82;56.33
74615;BME280;63121;51.458;-0.110;2023-09-19T03:53:31;100638.63;;;17.72;56.42
74615;BME280;63121;51.458;-0.110;2023-09-19T03:55:56;100628.97;;;17.74;56.47
74615;BME280;63121;51.458;-0.110;2023-09-19T03:58:22;100621.00;;;17.77;56.33
74615;BME280;63121;51.458;-0.110;2023-09-19T04:00:47;100617.25;;;17.84;56.78
74615;BME280;63121;51.458;-0.110;2023-09-19T04:03:15;100619.78;;;17.85;56.75
74615;BME280;63121;51.458;-0.110;2023-09-19T04:05:45;100621.50;;;17.86;56.57
74615;BME280;63121;51.458;-0.110;2023-09-19T04:08:12;100610.94;;;17.67;56.93
74615;BME280;63121;51.458;-0.110;2023-09-19T04:10:37;100614.56;;;17.85;57.14
74615;BME280;63121;51.458;-0.110;2023-09-19T04:13:03;100611.34;;;17.79;57.21
74615;BME280;63121;51.458;-0.110;2023-09-19T04:15:29;100611.47;;;17.76;57.45
74615;BME280;63121;51.458;-0.110;2023-09-19T04:17:54;100599.72;;;17.65;57.50
74615;BME280;63121;51.458;-0.110;2023-09-19T04:20:21;100600.59;;;17.86;57.52
74615;BME280;63121;51.458;-0.110;2023-09-19T04:22:48;100590.78;;;17.92;57.08
74615;BME280;63121;51.458;-0.110;2023-09-19T04:25:13;100594.50;;;18.06;57.35
74615;BME280;63121;51.458;-0.110;2023-09-19T04:27:39;100591.19;;;17.82;57.70
74615;BME280;63121;51.458;-0.110;2023-09-19T04:30:06;100590.59;;;17.76;58.02
74615;BME280;63121;51.458;-0.110;2023-09-19T04:32:39;100580.16;;;17.76;58.47
74615;BME280;63121;51.458;-0.110;2023-09-19T04:35:09;100572.78;;;17.85;58.38
74615;BME280;63121;51.458;-0.110;2023-09-19T04:37:39;100577.69;;;17.93;58.06
74615;BME280;63121;51.458;-0.110;2023-09-19T04:40:09;100579.25;;;17.97;58.28
74615;BME280;63121;51.458;-0.110;2023-09-19T04:42:39;100574.22;;;17.93;58.15
74615;BME280;63121;51.458;-0.110;2023-09-19T04:45:04;100581.34;;;17.89;58.70
74615;BME280;63121;51.458;-0.110;2023-09-19T04:47:30;100577.25;;;18.02;58.55
74615;BME280;63121;51.458;-0.110;2023-09-19T04:49:55;100567.03;;;17.77;59.24
74615;BME280;63121;51.458;-0.110;2023-09-19T04:52:21;100574.59;;;17.83;59.26
74615;BME280;63121;51.458;-0.110;2023-09-19T04:54:47;100568.09;;;18.13;58.49
74615;BME280;63121;51.458;-0.110;2023-09-19T04:57:13;100570.16;;;18.06;59.12
74615;BME280;63121;51.458;-0.110;2023-09-19T04:59:38;100570.38;;;18.39;58.25
74615;BME280;63121;51.458;-0.110;2023-09-19T05:02:06;100570.94;;;18.27;58.36
74615;BME280;63121;51.458;-0.110;2023-09-19T05:04:33;100582.19;;;18.48;58.00
74615;BME280;63121;51.458;-0.110;2023-09-19T05:06:59;100579.13;;;18.57;57.42
74615;BME280;63121;51.458;-0.110;2023-09-19T05:09:26;100568.59;;;18.59;57.52
74615;BME280;63121;51.458;-0.110;2023-09-19T05:11:51;100578.66;;;18.68;57.48
74615;BME280;63121;51.458;-0.110;2023-09-19T05:14:18;100569.81;;;18.52;57.58
74615;BME280;63121;51.458;-0.110;2023-09-19T05:16:44;100576.81;;;18.51;57.37
74615;BME280;63121;51.458;-0.110;2023-09-19T05:19:09;100570.53;;;18.74;57.47
74615;BME280;63121;51.458;-0.110;2023-09-19T05:21:36;100576.09;;;18.66;57.25
74615;BME280;63121;51.458;-0.110;2023-09-19T05:24:06;100578.72;;;18.47;57.92
74615;BME280;63121;51.458;-0.110;2023-09-19T05:26:32;100580.69;;;18.80;57.50
74615;BME280;63121;51.458;-0.110;2023-09-19T05:28:58;100576.22;;;18.82;57.24
74615;BME280;63121;51.458;-0.110;2023-09-19T05:31:23;100573.19;;;18.73;57.89
74615;BME280;63121;51.458;-0.110;2023-09-19T05:33:49;100571.25;;;18.76;57.80
74615;BME280;63121;51.458;-0.110;2023-09-19T05:36:15;100572.72;;;18.83;57.75
74615;BME280;63121;51.458;-0.110;2023-09-19T05:38:41;100564.66;;;18.88;57.46
74615;BME280;63121;51.458;-0.110;2023-09-19T05:41:07;100571.88;;;18.83;57.91
74615;BME280;63121;51.458;-0.110;2023-09-19T05:43:34;100568.56;;;18.79;57.69
74615;BME280;63121;51.458;-0.110;2023-09-19T05:46:03;100564.88;;;18.83;57.98
74615;BME280;63121;51.458;-0.110;2023-09-19T05:48:28;100554.59;;;18.98;57.42
74615;BME280;63121;51.458;-0.110;2023-09-19T05:50:53;100551.56;;;18.88;58.02
74615;BME280;63121;51.458;-0.110;2023-09-19T05:53:19;100553.34;;;18.68;58.79
74615;BME280;63121;51.458;-0.110;2023-09-19T05:55:44;100533.03;;;18.74;58.48
74615;BME280;63121;51.458;-0.110;2023-09-19T05:58:10;100539.50;;;18.85;58.86
74615;BME280;63121;51.458;-0.110;2023-09-19T06:00:39;100534.75;;;18.75;58.97
74615;BME280;63121;51.458;-0.110;2023-09-19T06:03:07;100537.19;;;18.78;58.64
74615;BME280;63121;51.458;-0.110;2023-09-19T06:05:33;100525.91;;;18.77;59.32
74615;BME280;63121;51.458;-0.110;2023-09-19T06:07:59;100529.81;;;19.05;59.20
74615;BME280;63121;51.458;-0.110;2023-09-19T06:10:33;100525.34;;;19.07;59.12
74615;BME280;63121;51.458;-0.110;2023-09-19T06:12:59;100520.03;;;18.91;59.37
74615;BME280;63121;51.458;-0.110;2023-09-19T06:15:25;100517.50;;;19.24;58.91
74615;BME280;63121;51.458;-0.110;2023-09-19T06:17:55;100522.50;;;19.12;58.91
74615;BME280;63121;51.458;-0.110;2023-09-19T06:20:23;100519.75;;;19.15;58.98
74615;BME280;63121;51.458;-0.110;2023-09-19T06:22:51;100524.81;;;18.83;60.32
74615;BME280;63121;51.458;-0.110;2023-09-19T06:25:17;100519.72;;;18.80;60.96
74615;BME280;63121;51.458;-0.110;2023-09-19T06:27:49;100523.38;;;19.12;59.89
74615;BME280;63121;51.458;-0.110;2023-09-19T06:30:18;100521.03;;;18.88;60.16
74615;BME280;63121;51.458;-0.110;2023-09-19T06:32:43;100518.75;;;19.00;60.18
74615;BME280;63121;51.458;-0.110;2023-09-19T06:35:13;100503.66;;;19.22;59.77
74615;BME280;63121;51.458;-0.110;2023-09-19T06:37:39;100497.09;;;19.48;59.06
74615;BME280;63121;51.458;-0.110;2023-09-19T06:42:34;100494.66;;;19.11;60.96
74615;BME280;63121;51.458;-0.110;2023-09-19T06:45:02;100498.56;;;19.37;60.51
74615;BME280;63121;51.458;-0.110;2023-09-19T06:47:28;100495.69;;;19.59;59.99
74615;BME280;63121;51.458;-0.110;2023-09-19T06:49:54;100501.50;;;19.30;61.07
74615;BME280;63121;51.458;-0.110;2023-09-19T06:52:19;100499.97;;;19.77;60.00
74615;BME280;63121;51.458;-0.110;2023-09-19T06:54:48;100496.38;;;19.80;59.74
74615;BME280;63121;51.458;-0.110;2023-09-19T06:57:16;100491.81;;;19.66;60.54
74615;BME280;63121;51.458;-0.110;2023-09-19T06:59:45;100493.50;;;20.00;59.39
74615;BME280;63121;51.458;-0.110;2023-09-19T07:02:10;100490.88;;;19.84;60.02
74615;BME280;63121;51.458;-0.110;2023-09-19T07:04:36;100493.66;;;19.81;59.81
74615;BME280;63121;51.458;-0.110;2023-09-19T07:07:01;100493.69;;;19.97;59.53
74615;BME280;63121;51.458;-0.110;2023-09-19T07:09:26;100483.72;;;20.04;59.33
74615;BME280;63121;51.458;-0.110;2023-09-19T07:11:53;100472.66;;;20.15;59.29
74615;BME280;63121;51.458;-0.110;2023-09-19T07:14:19;100467.81;;;19.91;59.93
74615;BME280;63121;51.458;-0.110;2023-09-19T07:16:44;100466.72;;;20.27;58.89
74615;BME280;63121;51.458;-0.110;2023-09-19T07:19:10;100468.25;;;19.99;60.19
74615;BME280;63121;51.458;-0.110;2023-09-19T07:21:36;100461.56;;;20.25;59.28
74615;BME280;63121;51.458;-0.110;2023-09-19T07:24:03;100456.66;;;19.87;60.00
74615;BME280;63121;51.458;-0.110;2023-09-19T07:26:29;100460.38;;;20.31;59.55
74615;BME280;63121;51.458;-0.110;2023-09-19T07:28:56;100466.31;;;20.19;59.62
74615;BME280;63121;51.458;-0.110;2023-09-19T07:31:22;100462.94;;;20.33;58.84
74615;BME280;63121;51.458;-0.110;2023-09-19T07:33:48;100458.94;;;20.25;59.00
74615;BME280;63121;51.458;-0.110;2023-09-19T07:36:14;100457.66;;;20.95;57.25
74615;BME280;63121;51.458;-0.110;2023-09-19T07:38:41;100468.16;;;20.17;59.22
74615;BME280;63121;51.458;-0.110;2023-09-19T07:41:07;100453.22;;;20.35;59.08
74615;BME280;63121;51.458;-0.110;2023-09-19T07:43:35;100445.22;;;20.36;58.92
74615;BME280;63121;51.458;-0.110;2023-09-19T07:46:04;100443.22;;;20.41;58.44
74615;BME280;63121;51.458;-0.110;2023-09-19T07:48:33;100446.13;;;20.51;57.98
74615;BME280;63121;51.458;-0.110;2023-09-19T07:51:08;100431.13;;;20.39;58.60
74615;BME280;63121;51.458;-0.110;2023-09-19T07:53:35;100434.22;;;20.61;58.00
74615;BME280;63121;51.458;-0.110;2023-09-19T07:56:05;100433.97;;;20.50;58.19
74615;BME280;63121;51.458;-0.110;2023-09-19T07:58:31;100437.91;;;20.43;58.27
74615;BME280;63121;51.458;-0.110;2023-09-19T08:01:05;100424.19;;;20.84;57.52
74615;BME280;63121;51.458;-0.110;2023-09-19T08:03:30;100428.47;;;21.15;56.99
74615;BME280;63121;51.458;-0.110;2023-09-19T08:05:56;100440.50;;;20.59;58.37
74615;BME280;63121;51.458;-0.110;2023-09-19T08:08:23;100428.88;;;20.47;58.84
74615;BME280;63121;51.458;-0.110;2023-09-19T08:10:55;100427.16;;;20.31;59.77
74615;BME280;63121;51.458;-0.110;2023-09-19T08:13:25;100429.53;;;20.20;60.71
74615;BME280;63121;51.458;-0.110;2023-09-19T08:15:51;100439.13;;;20.67;59.17
74615;BME280;63121;51.458;-0.110;2023-09-19T08:18:20;100441.19;;;20.62;59.23
74615;BME280;63121;51.458;-0.110;2023-09-19T08:20:51;100448.53;;;20.56;58.87
74615;BME280;63121;51.458;-0.110;2023-09-19T08:23:17;100447.75;;;20.54;58.75
74615;BME280;63121;51.458;-0.110;2023-09-19T08:25:45;100445.81;;;20.73;58.69
74615;BME280;63121;51.458;-0.110;2023-09-19T08:28:11;100435.00;;;20.94;57.54
74615;BME280;63121;51.458;-0.110;2023-09-19T08:30:39;100434.38;;;21.04;57.20
74615;BME280;63121;51.458;-0.110;2023-09-19T08:33:05;100437.13;;;21.60;55.66
74615;BME280;63121;51.458;-0.110;2023-09-19T08:35:32;100448.25;;;21.06;57.49
74615;BME280;63121;51.458;-0.110;2023-09-19T08:37:57;100451.75;;;21.36;56.66
74615;BME280;63121;51.458;-0.110;2023-09-19T08:40:25;100446.63;;;21.48;56.77
74615;BME280;63121;51.458;-0.110;2023-09-19T08:42:55;100440.47;;;21.19;57.83
74615;BME280;63121;51.458;-0.110;2023-09-19T08:45:24;100428.19;;;21.91;55.95
74615;BME280;63121;51.458;-0.110;2023-09-19T08:48:20;100430.47;;;21.69;56.53
74615;BME280;63121;51.458;-0.110;2023-09-19T08:51:02;100439.75;;;21.89;55.62
74615;BME280;63121;51.458;-0.110;2023-09-19T08:53:41;100436.38;;;21.87;55.49
74615;BME280;63121;51.458;-0.110;2023-09-19T08:56:10;100437.56;;;21.96;55.30
74615;BME280;63121;51.458;-0.110;2023-09-19T08:59:26;100447.41;;;22.06;54.50
74615;BME280;63121;51.458;-0.110;2023-09-19T09:01:31;100434.56;;;21.30;56.98
74615;BME280;63121;51.458;-0.110;2023-09-19T09:03:57;100427.66;;;21.58;55.70
74615;BME280;63121;51.458;-0.110;2023-09-19T09:06:25;100419.56;;;21.32;56.20
74615;BME280;63121;51.458;-0.110;2023-09-19T09:08:51;100442.47;;;21.73;55.23
74615;BME280;63121;51.458;-0.110;2023-09-19T09:11:18;100422.47;;;21.85;54.86
74615;BME280;63121;51.458;-0.110;2023-09-19T09:13:45;100422.50;;;21.70;54.66
74615;BME280;63121;51.458;-0.110;2023-09-19T09:16:11;100432.50;;;21.35;55.67
74615;BME280;63121;51.458;-0.110;2023-09-19T09:18:38;100424.19;;;21.57;55.40
74615;BME280;63121;51.458;-0.110;2023-09-19T09:21:04;100424.28;;;21.70;55.37
74615;BME280;63121;51.458;-0.110;2023-09-19T09:23:30;100427.56;;;21.45;55.10
74615;BME280;63121;51.458;-0.110;2023-09-19T09:25:58;100442.00;;;21.52;55.55
74615;BME280;63121;51.458;-0.110;2023-09-19T09:28:34;100433.66;;;21.74;54.92
74615;BME280;63121;51.458;-0.110;2023-09-19T09:31:04;100449.13;;;20.61;57.33
74615;BME280;63121;51.458;-0.110;2023-09-19T09:33:37;100427.81;;;21.11;56.29
74615;BME280;63121;51.458;-0.110;2023-09-19T09:36:04;100442.41;;;21.01;56.45
74615;BME280;63121;51.458;-0.110;2023-09-19T09:38:47;100436.69;;;20.64;57.39
74615;BME280;63121;51.458;-0.110;2023-09-19T09:41:36;100446.19;;;21.26;55.68
74615;BME280;63121;51.458;-0.110;2023-09-19T09:44:16;100442.44;;;21.16;56.09
74615;BME280;63121;51.458;-0.110;2023-09-19T09:46:45;100430.56;;;21.67;54.66
74615;BME280;63121;51.458;-0.110;2023-09-19T09:49:24;100438.00;;;21.46;55.17
74615;BME280;63121;51.458;-0.110;2023-09-19T09:52:03;100434.41;;;20.88;56.34
74615;BME280;63121;51.458;-0.110;2023-09-19T09:55:02;100435.66;;;21.11;55.53
74615;BME280;63121;51.458;-0.110;2023-09-19T09:57:33;100434.03;;;21.82;54.44
74615;BME280;63121;51.458;-0.110;2023-09-19T10:00:00;100422.94;;;21.91;53.79
74615;BME280;63121;51.458;-0.110;2023-09-19T10:02:42;100416.41;;;22.39;52.27
74615;BME280;63121;51.458;-0.110;2023-09-19T10:05:14;100416.38;;;23.31;49.69
74615;BME280;63121;51.458;-0.110;2023-09-19T10:07:50;100409.75;;;23.39;49.57
74615;BME280;63121;51.458;-0.110;2023-09-19T10:10:34;100425.19;;;22.92;49.96
74615;BME280;63121;51.458;-0.110;2023-09-19T10:13:10;100412.28;;;22.74;51.05
74615;BME280;63121;51.458;-0.110;2023-09-19T10:15:44;100420.19;;;22.35;51.82
74615;BME280;63121;51.458;-0.110;2023-09-19T10:18:20;100412.09;;;22.10;52.23
74615;BME280;63121;51.458;-0.110;2023-09-19T10:20:46;100418.00;;;22.14;51.96
74615;BME280;63121;51.458;-0.110;2023-09-19T10:23:14;100409.78;;;22.33;51.58
74615;BME280;63121;51.458;-0.110;2023-09-19T10:25:46;100427.50;;;22.02;52.21
74615;BME280;63121;51.458;-0.110;2023-09-19T10:28:13;100413.31;;;22.05;52.20
74615;BME280;63121;51.458;-0.110;2023-09-19T10:30:43;100412.63;;;22.70;50.43
74615;BME280;63121;51.458;-0.110;2023-09-19T10:33:11;100415.06;;;22.73;51.04
74615;BME280;63121;51.458;-0.110;2023-09-19T10:35:39;100417.72;;;22.46;51.01
74615;BME280;63121;51.458;-0.110;2023-09-19T10:38:07;100395.31;;;23.19;49.48
74615;BME280;63121;51.458;-0.110;2023-09-19T10:40:35;100406.59;;;24.44;47.17
74615;BME280;63121;51.458;-0.110;2023-09-19T10:43:05;100395.28;;;23.44;48.88
74615;BME280;63121;51.458;-0.110;2023-09-19T10:45:32;100403.47;;;23.65;49.00
74615;BME280;63121;51.458;-0.110;2023-09-19T10:47:59;100407.88;;;24.39;46.71
74615;BME280;63121;51.458;-0.110;2023-09-19T10:50:27;100418.88;;;24.32;47.62
74615;BME280;63121;51.458;-0.110;2023-09-19T10:52:59;100419.53;;;23.49;49.43
74615;BME280;63121;51.458;-0.110;2023-09-19T10:55:30;100395.31;;;23.06;50.68
74615;BME280;63121;51.458;-0.110;2023-09-19T10:57:56;100392.41;;;23.60;49.57
74615;BME280;63121;51.458;-0.110;2023-09-19T11:00:51;100396.84;;;22.96;50.63
74615;BME280;63121;51.458;-0.110;2023-09-19T11:03:20;100386.16;;;23.24;50.72
74615;BME280;63121;51.458;-0.110;2023-09-19T11:06:09;100391.28;;;23.51;49.82
74615;BME280;63121;51.458;-0.110;2023-09-19T11:11:42;100396.59;;;23.75;49.54
74615;BME280;63121;51.458;-0.110;2023-09-19T11:14:15;100404.09;;;23.82;49.47
74615;BME280;63121;51.458;-0.110;2023-09-19T11:30:48;100397.34;;;22.62;52.71
74615;BME280;63121;51.458;-0.110;2023-09-19T11:33:27;100391.94;;;23.17;51.66
74615;BME280;63121;51.458;-0.110;2023-09-19T11:36:08;100406.06;;;23.03;52.03
74615;BME280;63121;51.458;-0.110;2023-09-19T11:46:51;100413.25;;;22.61;53.90
74615;BME280;63121;51.458;-0.110;2023-09-19T11:49:19;100402.75;;;22.19;54.50
74615;BME280;63121;51.458;-0.110;2023-09-19T11:51:50;100400.56;;;22.40;54.35
74615;BME280;63121;51.458;-0.110;2023-09-19T11:54:27;100414.56;;;21.99;55.70
74615;BME280;63121;51.458;-0.110;2023-09-19T11:56:58;100407.84;;;21.81;56.44
74615;BME280;63121;51.458;-0.110;2023-09-19T11:59:25;100425.41;;;21.80;56.24
74615;BME280;63121;51.458;-0.110;2023-09-19T12:02:03;100414.22;;;22.18;55.80
74615;BME280;63121;51.458;-0.110;2023-09-19T12:04:36;100396.97;;;22.81;54.63
74615;BME280;63121;51.458;-0.110;2023-09-19T12:07:06;100399.34;;;23.87;51.66
74615;BME280;63121;51.458;-0.110;2023-09-19T12:09:38;100395.28;;;23.31;53.10
74615;BME280;63121;51.458;-0.110;2023-09-19T12:12:04;100400.16;;;23.12;53.33
74615;BME280;63121;51.458;-0.110;2023-09-19T12:14:30;100400.69;;;23.04;53.61
74615;BME280;63121;51.458;-0.110;2023-09-19T12:16:57;100398.19;;;23.65;52.05
74615;BME280;63121;51.458;-0.110;2023-09-19T12:19:25;100389.59;;;22.99;54.02
74615;BME280;63121;51.458;-0.110;2023-09-19T12:21:55;100402.47;;;23.29;53.59
74615;BME280;63121;51.458;-0.110;2023-09-19T12:24:24;100391.31;;;23.39;53.05
74615;BME280;63121;51.458;-0.110;2023-09-19T12:26:51;100384.69;;;23.07;53.73
74615;BME280;63121;51.458;-0.110;2023-09-19T12:29:21;100387.59;;;23.41;52.71
74615;BME280;63121;51.458;-0.110;2023-09-19T12:31:57;100389.69;;;23.62;52.24
74615;BME280;63121;51.458;-0.110;2023-09-19T12:34:24;100389.53;;;23.13;54.00
74615;BME280;63121;51.458;-0.110;2023-09-19T12:37:07;100384.59;;;23.09;54.42
74615;BME280;63121;51.458;-0.110;2023-09-19T12:42:10;100389.19;;;23.18;56.28
74615;BME280;63121;51.458;-0.110;2023-09-19T12:44:41;100396.53;;;22.87;57.55
74615;BME280;63121;51.458;-0.110;2023-09-19T12:47:18;100384.78;;;23.06;57.55
74615;BME280;63121;51.458;-0.110;2023-09-19T12:50:18;100377.09;;;23.03;58.41
74615;BME280;63121;51.458;-0.110;2023-09-19T12:52:51;100380.88;;;23.37;58.37
74615;BME280;63121;51.458;-0.110;2023-09-19T12:55:26;100379.06;;;23.38;58.09
74615;BME280;63121;51.458;-0.110;2023-09-19T12:58:13;100379.38;;;22.82;58.82
74615;BME280;63121;51.458;-0.110;2023-09-19T13:00:44;100374.56;;;21.94;62.07
74615;BME280;63121;51.458;-0.110;2023-09-19T13:03:32;100376.31;;;22.62;60.41
74615;BME280;63121;51.458;-0.110;2023-09-19T13:06:04;100378.13;;;23.00;60.02
74615;BME280;63121;51.458;-0.110;2023-09-19T13:08:31;100368.69;;;22.58;60.80
74615;BME280;63121;51.458;-0.110;2023-09-19T13:11:04;100378.75;;;22.38;61.33
74615;BME280;63121;51.458;-0.110;2023-09-19T13:13:36;100380.31;;;22.13;62.28
74615;BME280;63121;51.458;-0.110;2023-09-19T13:16:02;100381.63;;;22.35;61.52
74615;BME280;63121;51.458;-0.110;2023-09-19T13:18:29;100373.53;;;21.97;62.25
74615;BME280;63121;51.458;-0.110;2023-09-19T13:21:13;100379.38;;;22.29;61.94
74615;BME280;63121;51.458;-0.110;2023-09-19T13:23:53;100377.25;;;22.61;60.52
74615;BME280;63121;51.458;-0.110;2023-09-19T13:26:19;100366.31;;;22.93;60.16
74615;BME280;63121;51.458;-0.110;2023-09-19T13:28:46;100368.03;;;21.87;61.68
74615;BME280;63121;51.458;-0.110;2023-09-19T13:31:14;100376.50;;;22.05;61.65
74615;BME280;63121;51.458;-0.110;2023-09-19T13:33:46;100371.28;;;22.32;61.34
74615;BME280;63121;51.458;-0.110;2023-09-19T13:36:12;100371.13;;;22.21;60.80
74615;BME280;63121;51.458;-0.110;2023-09-19T13:38:41;100368.75;;;22.03;61.22
74615;BME280;63121;51.458;-0.110;2023-09-19T13:41:11;100380.84;;;22.06;60.83
74615;BME280;63121;51.458;-0.110;2023-09-19T13:43:37;100382.88;;;22.15;60.98
74615;BME280;63121;51.458;-0.110;2023-09-19T13:46:04;100383.31;;;22.49;60.14